Latest Weather Observations for Sydney Harbour

IDN60801

Issued at 1:05 am EDT Monday 24 November 2014 (issued every 30 minutes, with the page automatically refreshed every 10 minutes)

About weather observations | Map of weather stations | Latest weather observations for NSW | Other Formats
Station Details ID: 066196 Name: WEDDING CAKE WEST Lat: -33.84 Lon: 151.26 Height: 6.0 m
Data from the previous 72 hours. | See also: Recent months for locations in New South Wales
Date/Time
EDT
Temp
°C
App
Temp
°C
Dew
Point
Rel
Hum
%
Delta-T
°C
Wind Press
QNH
hPa
Press
MSL
hPa
Rain
since 9 am
mm
Dir
 
Spd
km/h
Gust
km/h
Spd
kts
Gust
kts
24/01:00am 21.7 - - - - SSW 20 28 11 15 - - -
24/12:30am 22.0 - - - - SW 9 17 5 9 - - -
24/12:00am 22.0 - - - - WSW 0 0 0 0 - - -
 
Date/Time
EDT
Temp
°C
App
Temp
°C
Dew
Point
Rel
Hum
%
Delta-T
°C
Wind Press
QNH
hPa
Press
MSL
hPa
Rain
since 9 am
mm
Dir
 
Spd
km/h
Gust
km/h
Spd
kts
Gust
kts
23/11:30pm 22.1 - - - - WSW 17 22 9 12 - - -
23/11:00pm 21.8 - - - - S 9 13 5 7 - - -
23/10:30pm 21.8 - - - - S 13 17 7 9 - - -
23/10:00pm 21.7 - - - - S 19 26 10 14 - - -
23/09:30pm 21.9 - - - - ESE 9 15 5 8 - - -
23/09:22pm 21.9 - - - - SSE 11 20 6 11 - - -
23/09:00pm 22.0 - - - - S 37 46 20 25 - - -
23/08:30pm 22.1 - - - - SSW 52 70 28 38 - - -
23/08:23pm 22.1 - - - - SSW 41 67 22 36 - - -
23/08:18pm 22.2 - - - - SW 37 48 20 26 - - -
23/08:00pm 21.8 - - - - S 28 44 15 24 - - -
23/07:30pm 21.6 - - - - S 30 39 16 21 - - -
23/07:00pm 21.5 - - - - S 35 48 19 26 - - -
23/06:30pm 22.3 - - - - SSE 26 35 14 19 - - -
23/06:00pm 23.3 - - - - SE 20 24 11 13 - - -
23/05:30pm 22.4 - - - - E 20 24 11 13 - - -
23/05:17pm 22.3 - - - - ESE 9 11 5 6 - - -
23/05:00pm 22.0 - - - - ENE 43 48 23 26 - - -
23/04:30pm 22.7 - - - - E 26 37 14 20 - - -
23/04:00pm 24.3 - - - - NNE 26 37 14 20 - - -
23/03:30pm 23.7 - - - - NNE 28 35 15 19 - - -
23/03:00pm 21.7 - - - - NNE 30 35 16 19 - - -
23/02:30pm 21.7 - - - - N 28 32 15 17 - - -
23/02:00pm 21.5 - - - - N 30 33 16 18 - - -
23/01:30pm 21.5 - - - - NE 19 20 10 11 - - -
23/01:00pm 20.4 - - - - ENE 22 26 12 14 - - -
23/12:30pm 20.7 - - - - ENE 19 20 10 11 - - -
23/12:00pm 20.7 - - - - E 17 20 9 11 - - -
23/11:30am 21.0 - - - - ENE 15 19 8 10 - - -
23/11:00am 20.9 - - - - ENE 20 20 11 11 - - -
23/10:30am 21.0 - - - - ENE 19 22 10 12 - - -
23/10:00am 21.4 - - - - ENE 19 20 10 11 - - -
23/09:30am 21.8 - - - - N 9 11 5 6 - - -
23/09:00am 22.8 - - - - N 7 7 4 4 - - -
23/08:30am 21.6 - - - - CALM 0 6 0 3 - - -
23/08:00am 22.2 - - - - N 6 7 3 4 - - -
23/07:30am 20.2 - - - - N 13 15 7 8 - - -
23/07:00am 20.0 - - - - N 6 9 3 5 - - -
23/06:30am 20.0 - - - - WNW 6 7 3 4 - - -
23/06:00am 19.8 - - - - N 9 11 5 6 - - -
23/05:30am 19.8 - - - - N 13 15 7 8 - - -
23/05:00am 20.0 - - - - N 15 17 8 9 - - -
23/04:30am 20.1 - - - - N 11 13 6 7 - - -
23/04:00am 20.3 - - - - N 7 11 4 6 - - -
23/03:30am 20.2 - - - - N 7 13 4 7 - - -
23/03:00am 20.3 - - - - N 2 7 1 4 - - -
23/02:30am 20.4 - - - - NW 7 11 4 6 - - -
23/02:00am 20.5 - - - - N 13 17 7 9 - - -
23/01:30am 20.6 - - - - N 9 15 5 8 - - -
23/01:00am 20.7 - - - - NNW 9 11 5 6 - - -
23/12:30am 20.8 - - - - W 7 11 4 6 - - -
23/12:00am 20.9 - - - - N 15 17 8 9 - - -
 
Date/Time
EDT
Temp
°C
App
Temp
°C
Dew
Point
Rel
Hum
%
Delta-T
°C
Wind Press
QNH
hPa
Press
MSL
hPa
Rain
since 9 am
mm
Dir
 
Spd
km/h
Gust
km/h
Spd
kts
Gust
kts
22/11:30pm 20.7 - - - - NNE 17 19 9 10 - - -
22/11:00pm 20.5 - - - - N 20 24 11 13 - - -
22/10:30pm 20.5 - - - - N 19 22 10 12 - - -
22/10:00pm 20.7 - - - - N 19 24 10 13 - - -
22/09:30pm 20.6 - - - - NNE 19 20 10 11 - - -
22/09:00pm 20.6 - - - - NE 20 24 11 13 - - -
22/08:30pm 20.7 - - - - NE 19 22 10 12 - - -
22/08:00pm 20.6 - - - - NE 19 22 10 12 - - -
22/07:30pm 20.6 - - - - NE 19 22 10 12 - - -
22/07:00pm 20.6 - - - - NE 20 22 11 12 - - -
22/06:30pm 20.7 - - - - E 20 24 11 13 - - -
22/06:00pm 20.7 - - - - E 20 28 11 15 - - -
22/05:30pm 20.7 - - - - E 20 24 11 13 - - -
22/05:00pm 20.9 - - - - ENE 20 26 11 14 - - -
22/04:30pm 20.8 - - - - ENE 20 28 11 15 - - -
22/04:00pm 21.3 - - - - E 20 26 11 14 - - -
22/03:30pm 21.1 - - - - E 20 28 11 15 - - -
22/03:00pm 21.5 - - - - E 19 24 10 13 - - -
22/02:30pm 21.3 - - - - E 20 24 11 13 - - -
22/02:00pm 21.1 - - - - ESE 20 24 11 13 - - -
22/01:30pm 21.3 - - - - E 19 22 10 12 - - -
22/01:00pm 21.1 - - - - E 19 22 10 12 - - -
22/12:30pm 20.9 - - - - E 17 20 9 11 - - -
22/12:00pm 21.4 - - - - E 15 19 8 10 - - -
22/11:30am 21.3 - - - - E 11 15 6 8 - - -
22/11:00am 20.6 - - - - ENE 17 20 9 11 - - -
22/10:30am 21.9 - - - - SE 11 20 6 11 - - -
22/10:00am 21.5 - - - - S 6 11 3 6 - - -
22/09:30am 20.3 - - - - S 13 17 7 9 - - -
22/09:00am 20.4 - - - - SSE 13 19 7 10 - - -
22/08:30am 19.8 - - - - S 15 20 8 11 - - -
22/08:00am 20.0 - - - - S 17 20 9 11 - - -
22/07:30am 19.8 - - - - S 17 20 9 11 - - -
22/07:00am 19.7 - - - - S 17 24 9 13 - - -
22/06:30am 19.7 - - - - S 15 17 8 9 - - -
22/06:00am 19.7 - - - - S 20 24 11 13 - - -
22/05:30am 19.7 - - - - SSW 19 22 10 12 - - -
22/05:00am 19.6 - - - - S 17 20 9 11 - - -
22/04:30am 19.7 - - - - S 20 24 11 13 - - -
22/04:00am 19.8 - - - - S 20 24 11 13 - - -
22/03:30am 19.9 - - - - S 22 28 12 15 - - -
22/03:00am 20.0 - - - - S 22 30 12 16 - - -
22/02:30am 20.1 - - - - S 28 37 15 20 - - -
22/02:00am 20.2 - - - - S 26 32 14 17 - - -
22/01:30am 20.2 - - - - S 30 37 16 20 - - -
22/01:00am 20.4 - - - - S 30 39 16 21 - - -
22/12:30am 20.5 - - - - S 32 41 17 22 - - -
22/12:00am 20.5 - - - - S 32 43 17 23 - - -
 
Date/Time
EDT
Temp
°C
App
Temp
°C
Dew
Point
Rel
Hum
%
Delta-T
°C
Wind Press
QNH
hPa
Press
MSL
hPa
Rain
since 9 am
mm
Dir
 
Spd
km/h
Gust
km/h
Spd
kts
Gust
kts
21/11:30pm 20.5 - - - - S 39 50 21 27 - - -
21/11:00pm 20.8 - - - - S 33 46 18 25 - - -
21/10:30pm 21.0 - - - - S 35 50 19 27 - - -
21/10:00pm 21.1 - - - - S 33 48 18 26 - - -
21/09:36pm 21.2 - - - - S 35 54 19 29 - - -
21/09:30pm 21.2 - - - - S 39 54 21 29 - - -
21/09:00pm 21.6 - - - - S 43 61 23 33 - - -
21/08:30pm 21.8 - - - - S 43 61 23 33 - - -
21/08:28pm 21.8 - - - - S 43 61 23 33 - - -
21/08:00pm 22.0 - - - - S 41 56 22 30 - - -
21/07:30pm 22.2 - - - - S 39 48 21 26 - - -
21/07:00pm 22.3 - - - - S 35 44 19 24 - - -
21/06:30pm 23.0 - - - - S 39 48 21 26 - - -
21/06:00pm 24.8 - - - - S 32 41 17 22 - - -
21/05:58pm 25.0 - - - - S 30 39 16 21 - - -
21/05:30pm 26.1 - - - - SE 13 17 7 9 - - -
21/05:00pm 25.5 - - - - E 13 17 7 9 - - -
21/04:30pm 26.3 - - - - E 15 17 8 9 - - -
21/04:00pm 25.9 - - - - E 15 17 8 9 - - -
21/03:30pm 25.7 - - - - E 17 22 9 12 - - -
21/03:00pm 25.4 - - - - E 19 20 10 11 - - -
21/02:30pm 25.6 - - - - ENE 15 19 8 10 - - -
21/02:00pm 25.1 - - - - ENE 19 24 10 13 - - -
21/01:30pm 25.4 - - - - E 19 24 10 13 - - -
21/01:00pm 25.0 - - - - NE 15 20 8 11 - - -
21/12:30pm 23.2 - - - - ENE 11 15 6 8 - - -
21/12:00pm 23.2 - - - - E 19 22 10 12 - - -
21/11:30am 25.0 - - - - ESE 15 17 8 9 - - -
21/11:00am 25.4 - - - - SSE 9 17 5 9 - - -
21/10:30am 24.9 - - - - SSW 9 13 5 7 - - -
21/10:00am 26.0 - - - - S 13 15 7 8 - - -
21/09:30am 26.2 - - - - S 9 15 5 8 - - -
21/09:00am 25.6 - - - - W 6 13 3 7 - - -
21/08:30am 24.3 - - - - N 17 20 9 11 - - -
21/08:00am 25.9 - - - - N 15 19 8 10 - - -
21/07:30am 25.4 - - - - N 13 19 7 10 - - -
21/07:00am 25.1 - - - - N 11 17 6 9 - - -
21/06:30am 24.0 - - - - SW 15 15 8 8 - - -
21/06:00am 25.6 - - - - NW 17 20 9 11 - - -
21/05:30am 25.0 - - - - W 28 39 15 21 - - -
21/05:25am 25.0 - - - - W 28 39 15 21 - - -
21/05:00am 23.4 - - - - SW 15 20 8 11 - - -
21/04:30am 21.9 - - - - NNW 7 11 4 6 - - -
21/04:00am 23.1 - - - - WSW 9 13 5 7 - - -
21/03:30am 22.2 - - - - SW 9 15 5 8 - - -
21/03:00am 21.3 - - - - N 4 7 2 4 - - -
21/02:30am 21.8 - - - - N 9 9 5 5 - - -
21/02:00am 21.4 - - - - N 9 11 5 6 - - -
21/01:30am 21.4 - - - - N 15 15 8 8 - - -

Other Formats:

Comma delimited format used in spreadsheet applications
http://www.bom.gov.au/fwo/IDN60801/IDN60801.95766.axf

JavaScript Object Notation format (JSON) in row-major order
http://www.bom.gov.au/fwo/IDN60801/IDN60801.95766.json